createdAt,value
2018-01-02T00:02:25.812Z,91.05
2018-01-02T00:04:54.178Z,91.29
2018-01-02T00:07:23.271Z,91.14
2018-01-02T00:09:51.580Z,90.81
2018-01-02T00:12:20.685Z,91.21
2018-01-02T00:14:49.023Z,91.44
2018-01-02T00:17:17.383Z,91.06
2018-01-02T00:19:45.708Z,90.96
2018-01-02T00:22:14.028Z,91.06
2018-01-02T00:24:42.367Z,90.84
2018-01-02T00:27:10.683Z,90.93
2018-01-02T00:29:38.990Z,90.78
2018-01-02T00:32:07.343Z,90.95
2018-01-02T00:34:35.672Z,90.78
2018-01-02T00:37:04.780Z,90.90
2018-01-02T00:39:33.109Z,91.23
2018-01-02T00:42:01.436Z,91.16
2018-01-02T00:44:29.831Z,91.03
2018-01-02T00:46:58.152Z,91.09
2018-01-02T00:49:26.463Z,90.62
2018-01-02T00:51:54.804Z,91.53
2018-01-02T00:54:23.150Z,90.70
2018-01-02T00:56:51.467Z,91.18
2018-01-02T00:59:20.579Z,91.02
2018-01-02T01:01:49.671Z,91.23
2018-01-02T01:04:18.792Z,91.23
2018-01-02T01:06:47.125Z,91.24
2018-01-02T01:09:15.474Z,91.18
2018-01-02T01:11:43.812Z,91.32
2018-01-02T01:14:12.139Z,91.56
2018-01-02T01:16:40.492Z,91.37
2018-01-02T01:19:08.811Z,91.17
2018-01-02T01:21:37.147Z,91.63
2018-01-02T01:24:05.503Z,91.25
2018-01-02T01:26:34.587Z,91.30
2018-01-02T01:29:03.683Z,91.11
2018-01-02T01:31:32.794Z,91.32
2018-01-02T01:34:01.121Z,90.94
2018-01-02T01:36:29.470Z,90.80
2018-01-02T01:38:57.812Z,90.73
2018-01-02T01:41:26.920Z,90.95
2018-01-02T01:43:55.246Z,91.24
2018-01-02T01:46:23.591Z,91.28
2018-01-02T01:48:55.860Z,91.10
2018-01-02T01:51:24.186Z,90.97
2018-01-02T01:53:52.837Z,90.75
2018-01-02T01:56:21.155Z,91.17
2018-01-02T01:58:49.467Z,90.88
2018-01-02T02:01:17.816Z,90.96
2018-01-02T02:03:46.128Z,91.46
2018-01-02T02:06:14.444Z,91.98
2018-01-02T02:08:42.790Z,91.87
2018-01-02T02:11:11.152Z,92.52
2018-01-02T02:13:40.260Z,92.13
2018-01-02T02:16:08.627Z,91.97
2018-01-02T02:18:36.945Z,92.19
2018-01-02T02:21:05.263Z,92.04
2018-01-02T02:23:34.380Z,92.24
2018-01-02T02:26:02.732Z,92.33
2018-01-02T02:28:31.043Z,92.29
2018-01-02T02:30:59.351Z,92.27
2018-01-02T02:33:27.780Z,92.77
2018-01-02T02:35:56.090Z,92.61
2018-01-02T02:38:24.399Z,93.06
2018-01-02T02:41:09.084Z,93.29
2018-01-02T02:43:37.391Z,93.07
2018-01-02T02:46:05.730Z,92.74
2018-01-02T02:48:34.084Z,92.41
2018-01-02T02:51:02.418Z,92.71
2018-01-02T02:53:30.746Z,92.76
2018-01-02T02:55:59.899Z,91.61
2018-01-02T02:58:28.231Z,91.98
2018-01-02T03:00:56.551Z,91.71
2018-01-02T03:03:24.899Z,92.05
2018-01-02T03:05:53.986Z,92.02
2018-01-02T03:08:22.298Z,92.32
2018-01-02T03:10:51.526Z,92.46
2018-01-02T03:13:19.839Z,92.29
2018-01-02T03:15:48.192Z,91.52
2018-01-02T03:18:16.520Z,91.16
2018-01-02T03:20:46.324Z,91.24
2018-01-02T03:23:15.427Z,91.54
2018-01-02T03:25:44.532Z,91.64
2018-01-02T03:28:12.905Z,91.89
2018-01-02T03:30:41.992Z,91.50
2018-01-02T03:33:11.103Z,91.74
2018-01-02T03:35:39.427Z,91.43
2018-01-02T03:38:07.742Z,91.30
2018-01-02T03:40:36.883Z,90.78
2018-01-02T03:43:05.195Z,91.30
2018-01-02T03:45:33.541Z,91.77
2018-01-02T03:48:01.859Z,91.97
2018-01-02T03:50:30.176Z,91.72
2018-01-02T03:52:58.536Z,92.00
2018-01-02T03:55:26.911Z,92.26
2018-01-02T03:57:55.235Z,92.76
2018-01-02T04:00:23.560Z,92.77
2018-01-02T04:02:52.702Z,92.55
2018-01-02T04:05:21.017Z,92.62
2018-01-02T04:07:49.359Z,92.67
2018-01-02T04:10:18.483Z,92.05
2018-01-02T04:12:46.798Z,91.54
2018-01-02T04:15:15.107Z,91.74
2018-01-02T04:17:43.442Z,91.83
2018-01-02T04:20:12.535Z,92.10
2018-01-02T04:22:41.624Z,91.73
2018-01-02T04:25:10.732Z,91.64
2018-01-02T04:27:39.826Z,91.60
2018-01-02T04:30:08.976Z,92.05
2018-01-02T04:32:37.340Z,92.35
2018-01-02T04:35:05.667Z,92.26
2018-01-02T04:37:34.008Z,92.69
2018-01-02T04:40:02.323Z,92.82
2018-01-02T04:42:30.662Z,92.71
2018-01-02T04:44:59.004Z,92.87
2018-01-02T04:47:27.327Z,92.93
2018-01-02T04:49:56.471Z,93.00
2018-01-02T04:52:25.553Z,93.01
2018-01-02T04:54:54.679Z,92.42
2018-01-02T04:57:22.995Z,92.73
2018-01-02T04:59:51.304Z,92.77
2018-01-02T05:02:20.424Z,92.84
2018-01-02T05:04:48.744Z,92.93
2018-01-02T05:07:17.083Z,93.25
2018-01-02T05:09:45.398Z,93.63
2018-01-02T05:12:13.702Z,94.16
2018-01-02T05:14:42.041Z,94.44
2018-01-02T05:17:10.373Z,94.51
2018-01-02T05:19:39.476Z,94.45
2018-01-02T05:22:07.795Z,94.38
2018-01-02T05:24:36.131Z,94.39
2018-01-02T05:27:05.203Z,94.08
2018-01-02T05:29:33.567Z,94.07
2018-01-02T05:32:02.666Z,93.78
2018-01-02T05:34:30.993Z,93.33
2018-01-02T05:36:59.332Z,93.01
2018-01-02T05:39:27.651Z,92.73
2018-01-02T05:41:55.988Z,92.71
2018-01-02T05:44:24.317Z,92.65
2018-01-02T05:46:52.635Z,92.78
2018-01-02T05:49:20.979Z,92.73
2018-01-02T05:51:49.329Z,92.46
2018-01-02T05:54:17.672Z,92.40
2018-01-02T05:56:45.991Z,92.52
2018-01-02T05:59:14.343Z,92.69
2018-01-02T06:01:43.424Z,92.76
2018-01-02T06:04:11.730Z,92.72
2018-01-02T06:06:40.075Z,92.67
2018-01-02T06:09:08.387Z,92.69
2018-01-02T06:11:36.727Z,92.48
2018-01-02T06:14:05.053Z,92.45
2018-01-02T06:16:33.379Z,92.58
2018-01-02T06:19:01.732Z,92.89
2018-01-02T06:21:30.091Z,92.91
2018-01-02T06:23:58.411Z,92.96
2018-01-02T06:26:26.748Z,93.05
2018-01-02T06:28:55.079Z,93.01
2018-01-02T06:31:23.491Z,92.87
2018-01-02T06:33:51.824Z,93.06
2018-01-02T06:36:20.140Z,93.14
2018-01-02T06:38:48.474Z,93.15
2018-01-02T06:41:16.815Z,92.77
2018-01-02T06:43:45.168Z,92.59
2018-01-02T06:46:14.309Z,92.92
2018-01-02T06:48:42.635Z,93.04
2018-01-02T06:51:11.731Z,93.28
2018-01-02T06:53:40.847Z,93.09
2018-01-02T06:56:09.215Z,93.35
2018-01-02T06:58:38.303Z,93.33
2018-01-02T07:01:07.399Z,93.13
2018-01-02T07:03:36.537Z,93.21
2018-01-02T07:06:04.853Z,93.34
2018-01-02T07:08:33.193Z,93.66
2018-01-02T07:11:01.536Z,93.36
2018-01-02T07:13:30.629Z,93.53
2018-01-02T07:15:59.723Z,93.72
2018-01-02T07:18:28.807Z,93.81
2018-01-02T07:20:57.932Z,93.66
2018-01-02T07:23:26.285Z,93.43
2018-01-02T07:25:55.403Z,93.75
2018-01-02T07:28:23.760Z,92.89
2018-01-02T07:30:52.843Z,93.17
2018-01-02T07:33:21.163Z,92.99
2018-01-02T07:35:49.536Z,92.75
2018-01-02T07:38:17.846Z,92.64
2018-01-02T07:40:46.173Z,92.43
2018-01-02T07:43:15.287Z,91.82
2018-01-02T07:45:43.611Z,91.72
2018-01-02T07:48:11.935Z,91.60
2018-01-02T07:50:40.279Z,91.88
2018-01-02T07:53:08.605Z,92.05
2018-01-02T07:55:36.983Z,91.73
2018-01-02T07:58:05.303Z,91.61
2018-01-02T08:00:33.642Z,91.63
2018-01-02T08:03:01.956Z,91.99
2018-01-02T08:05:30.322Z,92.62
2018-01-02T08:07:59.403Z,92.58
2018-01-02T08:10:27.732Z,92.75
2018-01-02T08:12:56.830Z,92.73
2018-01-02T08:15:25.935Z,92.70
2018-01-02T08:17:55.056Z,92.35
2018-01-02T08:20:23.404Z,92.17
2018-01-02T08:22:52.490Z,92.26
2018-01-02T08:25:21.586Z,92.21
2018-01-02T08:27:50.720Z,92.73
2018-01-02T08:30:19.052Z,90.69
2018-01-02T08:32:47.380Z,90.63
2018-01-02T08:35:15.715Z,90.74
2018-01-02T08:37:44.051Z,91.19
2018-01-02T08:40:12.404Z,91.41
2018-01-02T08:42:40.735Z,91.43
2018-01-02T08:45:09.056Z,91.12
2018-01-02T08:47:37.440Z,91.63
2018-01-02T08:50:05.768Z,91.67
2018-01-02T08:52:34.119Z,91.79
2018-01-02T08:55:02.476Z,92.14
2018-01-02T08:57:30.807Z,91.76
2018-01-02T08:59:59.154Z,92.01
2018-01-02T09:02:27.483Z,91.82
2018-01-02T09:04:56.587Z,91.67
2018-01-02T09:07:25.713Z,92.21
2018-01-02T09:09:54.043Z,92.20
2018-01-02T09:12:27.922Z,92.17
2018-01-02T09:14:56.252Z,91.79
2018-01-02T09:17:25.373Z,91.29
2018-01-02T09:19:53.735Z,91.42
2018-01-02T09:22:22.063Z,90.66
2018-01-02T09:24:50.391Z,90.01
2018-01-02T09:27:18.737Z,89.38
2018-01-02T09:29:47.051Z,88.95
2018-01-02T09:32:15.365Z,89.37
2018-01-02T09:34:43.723Z,89.76
2018-01-02T09:37:12.059Z,89.82
2018-01-02T09:39:41.190Z,89.63
2018-01-02T09:42:09.516Z,89.18
2018-01-02T09:44:38.614Z,89.02
2018-01-02T09:47:06.978Z,89.35
2018-01-02T09:49:35.308Z,87.56
2018-01-02T09:52:03.702Z,87.22
2018-01-02T09:54:32.039Z,87.99
2018-01-02T09:57:01.111Z,88.20
2018-01-02T09:59:29.451Z,88.90
2018-01-02T10:01:57.763Z,88.23
2018-01-02T10:04:26.100Z,88.24
2018-01-02T10:06:54.435Z,88.57
2018-01-02T10:09:22.789Z,88.83
2018-01-02T10:11:51.168Z,87.98
2018-01-02T10:14:19.523Z,86.61
2018-01-02T10:16:47.880Z,86.67
2018-01-02T10:19:16.227Z,86.86
2018-01-02T10:21:44.556Z,87.70
2018-01-02T10:24:12.951Z,87.79
2018-01-02T10:26:41.253Z,88.44
2018-01-02T10:29:09.587Z,88.18
2018-01-02T10:31:37.923Z,88.74
2018-01-02T10:34:06.288Z,88.34
2018-01-02T10:36:34.607Z,88.88
2018-01-02T10:39:02.963Z,88.42
2018-01-02T10:41:32.092Z,88.19
2018-01-02T10:44:00.479Z,89.01
2018-01-02T10:46:28.836Z,88.81
2018-01-02T10:48:57.165Z,88.74
2018-01-02T10:51:25.491Z,88.78
2018-01-02T10:53:53.876Z,89.27
2018-01-02T10:56:22.211Z,89.74
2018-01-02T10:58:50.557Z,89.54
2018-01-02T11:01:24.551Z,89.18
2018-01-02T11:03:52.876Z,88.85
2018-01-02T11:06:21.216Z,88.91
2018-01-02T11:08:49.543Z,88.34
2018-01-02T11:11:20.571Z,88.42
2018-01-02T11:13:48.883Z,87.93
2018-01-02T11:16:17.195Z,87.85
2018-01-02T11:18:45.537Z,87.83
2018-01-02T11:21:13.871Z,87.51
2018-01-02T11:23:42.221Z,88.25
2018-01-02T11:26:10.543Z,88.19
2018-01-02T11:28:38.907Z,87.75
2018-01-02T11:31:07.227Z,88.21
2018-01-02T11:33:35.548Z,89.04
2018-01-02T11:36:03.903Z,88.67
2018-01-02T11:38:32.211Z,88.41
2018-01-02T11:41:00.552Z,87.92
2018-01-02T11:43:28.895Z,87.81
2018-01-02T11:45:57.979Z,87.73
2018-01-02T11:48:26.353Z,87.35
2018-01-02T11:50:54.663Z,87.75
2018-01-02T11:53:23.744Z,86.39
2018-01-02T11:55:52.869Z,86.85
2018-01-02T11:58:21.203Z,86.71
2018-01-02T12:00:49.555Z,87.01
2018-01-02T12:03:17.912Z,86.49
2018-01-02T12:05:46.247Z,86.01
2018-01-02T12:08:14.579Z,85.26
2018-01-02T12:10:42.949Z,85.13
2018-01-02T12:13:11.273Z,84.69
2018-01-02T12:15:39.592Z,84.39
2018-01-02T12:18:07.926Z,85.46
2018-01-02T12:20:36.272Z,84.27
2018-01-02T12:23:04.624Z,84.23
2018-01-02T12:25:32.982Z,83.45
2018-01-02T12:28:02.076Z,82.15
2018-01-02T12:30:31.182Z,82.79
2018-01-02T12:32:59.508Z,81.66
2018-01-02T12:35:27.834Z,81.69
2018-01-02T12:37:56.203Z,82.19
2018-01-02T12:40:25.292Z,81.52
2018-01-02T12:42:54.400Z,82.16
2018-01-02T12:45:23.546Z,81.96
2018-01-02T12:47:51.855Z,81.43
2018-01-02T12:50:20.235Z,80.93
2018-01-02T12:52:49.356Z,79.17
2018-01-02T12:55:17.739Z,79.32
2018-01-02T12:57:46.083Z,80.30
2018-01-02T13:00:14.413Z,80.75
2018-01-02T13:02:42.756Z,80.59
2018-01-02T13:05:11.869Z,81.08
2018-01-02T13:07:40.210Z,81.85
2018-01-02T13:10:08.551Z,80.80
2018-01-02T13:12:36.868Z,81.69
2018-01-02T13:15:05.219Z,80.93
2018-01-02T13:17:33.548Z,81.50
2018-01-02T13:20:02.695Z,82.37
2018-01-02T13:22:31.008Z,82.46
2018-01-02T13:24:59.327Z,82.59
2018-01-02T13:27:27.690Z,82.21
2018-01-02T13:29:56.017Z,80.96
2018-01-02T13:32:25.181Z,81.59
2018-01-02T13:34:53.526Z,80.99
2018-01-02T13:37:22.599Z,80.39
2018-01-02T13:39:50.918Z,80.36
2018-01-02T13:42:19.252Z,80.19
2018-01-02T13:44:47.579Z,79.54
2018-01-02T13:47:15.912Z,80.08
2018-01-02T13:49:44.247Z,80.14
2018-01-02T13:52:12.566Z,80.08
2018-01-02T13:54:40.906Z,80.14
2018-01-02T13:57:09.221Z,79.67
2018-01-02T13:59:37.578Z,79.97
2018-01-02T14:02:05.915Z,80.77
2018-01-02T14:04:34.230Z,80.27
2018-01-02T14:07:02.563Z,79.82
2018-01-02T14:09:31.659Z,80.17
2018-01-02T14:12:00.800Z,80.90
2018-01-02T14:14:29.135Z,80.87
2018-01-02T14:16:57.491Z,80.57
2018-01-02T14:19:26.615Z,80.52
2018-01-02T14:21:54.951Z,79.89
2018-01-02T14:24:23.284Z,80.36
2018-01-02T14:26:51.596Z,81.39
2018-01-02T14:29:19.944Z,81.65
2018-01-02T14:31:48.264Z,81.58
2018-01-02T14:34:16.656Z,80.69
2018-01-02T14:36:45.743Z,81.26
2018-01-02T14:39:14.055Z,81.49
2018-01-02T14:41:42.393Z,81.83
2018-01-02T14:44:10.707Z,81.66
2018-01-02T14:46:39.044Z,81.45
2018-01-02T14:49:07.387Z,82.01
2018-01-02T14:51:35.710Z,82.20
2018-01-02T14:54:04.023Z,82.54
2018-01-02T14:56:32.367Z,83.21
2018-01-02T14:59:00.689Z,82.72
2018-01-02T15:01:29.011Z,83.18
2018-01-02T15:03:57.359Z,82.25
2018-01-02T15:06:25.668Z,84.20
2018-01-02T15:08:54.803Z,82.88
2018-01-02T15:11:23.188Z,83.40
2018-01-02T15:13:51.507Z,83.77
2018-01-02T15:16:19.861Z,84.18
2018-01-02T15:18:48.233Z,84.07
2018-01-02T15:21:16.566Z,84.39
2018-01-02T15:23:44.930Z,85.01
2018-01-02T15:26:13.341Z,85.36
2018-01-02T15:28:42.437Z,85.70
2018-01-02T15:31:11.515Z,86.23
2018-01-02T15:33:39.834Z,90.35
2018-01-02T15:36:08.151Z,85.77
2018-01-02T15:38:36.524Z,85.74
2018-01-02T15:41:04.839Z,86.41
2018-01-02T15:43:33.930Z,86.69
2018-01-02T15:46:03.030Z,87.18
2018-01-02T15:48:32.154Z,87.42
2018-01-02T15:51:00.464Z,87.58
2018-01-02T15:53:28.809Z,87.92
2018-01-02T15:55:57.155Z,87.98
2018-01-02T15:58:26.624Z,88.04
2018-01-02T16:00:54.978Z,88.11
2018-01-02T16:03:23.315Z,88.07
2018-01-02T16:05:52.411Z,87.67
2018-01-02T16:08:21.540Z,87.36
2018-01-02T16:10:49.850Z,86.94
2018-01-02T16:13:18.195Z,86.41
2018-01-02T16:15:46.522Z,86.26
2018-01-02T16:18:15.676Z,86.20
2018-01-02T16:20:44.020Z,86.07
2018-01-02T16:23:13.131Z,85.10
2018-01-02T16:25:41.544Z,85.35
2018-01-02T16:28:09.863Z,85.39
2018-01-02T16:30:38.968Z,85.61
2018-01-02T16:33:08.085Z,85.67
2018-01-02T16:35:36.425Z,85.54
2018-01-02T16:38:04.775Z,85.94
2018-01-02T16:40:33.122Z,85.82
2018-01-02T16:43:01.431Z,85.82
2018-01-02T16:45:29.763Z,85.99
2018-01-02T16:47:58.145Z,85.99
2018-01-02T16:50:26.483Z,85.90
2018-01-02T16:52:54.836Z,85.65
2018-01-02T16:55:23.190Z,85.57
2018-01-02T16:57:51.559Z,85.74
2018-01-02T17:00:19.917Z,86.30
2018-01-02T17:02:49.004Z,86.78
2018-01-02T17:05:17.333Z,87.01
2018-01-02T17:07:45.676Z,87.37
2018-01-02T17:10:14.795Z,87.62
2018-01-02T17:12:43.135Z,87.73
2018-01-02T17:15:12.232Z,88.22
2018-01-02T17:17:41.360Z,88.24
2018-01-02T17:20:09.713Z,88.30
2018-01-02T17:22:38.819Z,87.84
2018-01-02T17:25:07.940Z,87.49
2018-01-02T17:27:36.267Z,87.22
2018-01-02T17:30:04.587Z,87.29
2018-01-02T17:32:32.971Z,87.01
2018-01-02T17:35:01.284Z,86.52
2018-01-02T17:37:29.599Z,86.40
2018-01-02T17:39:58.709Z,86.15
2018-01-02T17:42:27.023Z,86.06
2018-01-02T17:44:55.464Z,85.74
2018-01-02T17:47:23.803Z,85.44
2018-01-02T17:49:52.128Z,85.38
2018-01-02T17:52:20.471Z,85.23
2018-01-02T17:54:48.811Z,85.39
2018-01-02T17:57:17.144Z,85.38
2018-01-02T17:59:45.517Z,86.10
2018-01-02T18:02:14.864Z,86.51
2018-01-02T18:04:43.200Z,86.86
2018-01-02T18:07:12.332Z,86.98
2018-01-02T18:09:40.652Z,86.81
2018-01-02T18:12:08.985Z,86.52
2018-01-02T18:14:37.333Z,86.53
2018-01-02T18:17:06.463Z,86.24
2018-01-02T18:19:34.805Z,86.40
2018-01-02T18:22:03.296Z,86.26
2018-01-02T18:24:31.683Z,86.40
2018-01-02T18:27:00.075Z,86.59
2018-01-02T18:29:28.448Z,86.87
2018-01-02T18:31:56.791Z,86.94
2018-01-02T18:34:25.903Z,86.79
2018-01-02T18:36:54.224Z,86.56
2018-01-02T18:39:22.576Z,86.56
2018-01-02T18:41:50.931Z,86.38
2018-01-02T18:44:19.272Z,86.37
2018-01-02T18:46:47.621Z,86.12
2018-01-02T18:49:15.948Z,86.14
2018-01-02T18:51:44.310Z,86.80
2018-01-02T18:54:12.671Z,87.06
2018-01-02T18:56:41.028Z,87.26
2018-01-02T18:59:09.413Z,87.68
2018-01-02T19:01:37.760Z,88.03
2018-01-02T19:04:06.994Z,88.09
2018-01-02T19:06:35.315Z,88.18
2018-01-02T19:09:03.663Z,88.13
2018-01-02T19:11:31.990Z,88.09
2018-01-02T19:14:01.144Z,88.11
2018-01-02T19:16:29.535Z,88.20
2018-01-02T19:18:57.868Z,87.87
2018-01-02T19:21:26.309Z,87.95
2018-01-02T19:23:55.428Z,88.21
2018-01-02T19:26:23.744Z,88.38
2018-01-02T19:28:52.084Z,88.08
2018-01-02T19:31:20.412Z,88.59
2018-01-02T19:33:48.766Z,88.46
2018-01-02T19:36:17.095Z,88.96
2018-01-02T19:38:46.219Z,89.40
2018-01-02T19:41:14.585Z,89.01
2018-01-02T19:43:42.911Z,89.07
2018-01-02T19:46:11.296Z,89.27
2018-01-02T19:48:40.371Z,89.11
2018-01-02T19:51:08.707Z,89.33
2018-01-02T19:53:37.804Z,89.09
2018-01-02T19:56:06.161Z,88.98
2018-01-02T19:58:34.481Z,89.22
2018-01-02T20:01:02.831Z,89.21
2018-01-02T20:03:31.939Z,89.19
2018-01-02T20:06:00.274Z,89.20
2018-01-02T20:08:28.652Z,89.26
2018-01-02T20:10:57.777Z,89.43
2018-01-02T20:13:26.873Z,89.39
2018-01-02T20:15:55.196Z,89.13
2018-01-02T20:18:28.941Z,89.32
2018-01-02T20:20:57.268Z,89.46
2018-01-02T20:23:25.635Z,89.00
2018-01-02T20:25:53.966Z,89.26
2018-01-02T20:28:22.286Z,88.97
2018-01-02T20:30:50.671Z,88.82
2018-01-02T20:33:19.002Z,88.56
2018-01-02T20:35:47.356Z,88.73
2018-01-02T20:38:15.680Z,89.11
2018-01-02T20:40:44.779Z,89.60
2018-01-02T20:43:13.865Z,89.56
2018-01-02T20:45:42.214Z,89.73
2018-01-02T20:48:10.557Z,89.77
2018-01-02T20:50:38.926Z,90.00
2018-01-02T20:53:07.248Z,90.09
2018-01-02T20:55:35.612Z,90.26
2018-01-02T20:58:03.983Z,90.51
2018-01-02T21:00:32.307Z,90.72
2018-01-02T21:03:00.649Z,90.96
2018-01-02T21:05:29.008Z,91.00
2018-01-02T21:07:57.386Z,91.08
2018-01-02T21:10:25.793Z,91.40
2018-01-02T21:12:54.126Z,91.38
2018-01-02T21:15:23.225Z,91.31
2018-01-02T21:17:51.575Z,91.44
2018-01-02T21:20:19.914Z,91.48
2018-01-02T21:22:48.250Z,91.26
2018-01-02T21:25:16.613Z,91.17
2018-01-02T21:27:44.954Z,90.34
2018-01-02T21:30:13.815Z,90.25
2018-01-02T21:32:42.131Z,89.96
2018-01-02T21:35:10.447Z,89.81
2018-01-02T21:37:39.581Z,89.79
2018-01-02T21:40:07.918Z,89.88
2018-01-02T21:42:37.021Z,89.79
2018-01-02T21:45:06.131Z,89.91
2018-01-02T21:47:34.489Z,89.82
2018-01-02T21:50:03.578Z,89.92
2018-01-02T21:52:32.674Z,89.89
2018-01-02T21:55:01.810Z,89.90
2018-01-02T21:57:30.148Z,89.72
2018-01-02T21:59:59.239Z,89.65
2018-01-02T22:02:27.573Z,89.35
2018-01-02T22:04:55.923Z,89.49
2018-01-02T22:07:24.247Z,89.17
2018-01-02T22:09:54.181Z,89.36
2018-01-02T22:12:22.554Z,89.47
2018-01-02T22:14:50.892Z,89.55
2018-01-02T22:17:19.449Z,89.21
2018-01-02T22:19:47.766Z,89.16
2018-01-02T22:22:16.102Z,89.00
2018-01-02T22:24:45.178Z,89.13
2018-01-02T22:27:14.357Z,88.88
2018-01-02T22:29:42.664Z,89.05
2018-01-02T22:32:11.001Z,89.29
2018-01-02T22:34:39.348Z,89.27
2018-01-02T22:37:07.688Z,89.68
2018-01-02T22:39:36.015Z,89.46
2018-01-02T22:42:04.359Z,89.47
2018-01-02T22:44:33.446Z,89.46
2018-01-02T22:47:02.571Z,89.46
2018-01-02T22:49:30.898Z,89.50
2018-01-02T22:51:59.224Z,89.46
2018-01-02T22:54:27.596Z,89.62
2018-01-02T22:56:55.958Z,89.76
2018-01-02T22:59:25.042Z,89.89
2018-01-02T23:01:53.387Z,89.70
2018-01-02T23:04:21.704Z,89.43
2018-01-02T23:06:50.783Z,89.45
2018-01-02T23:09:19.136Z,89.44
2018-01-02T23:11:47.459Z,89.07
2018-01-02T23:14:16.548Z,88.75
2018-01-02T23:16:45.676Z,88.79
2018-01-02T23:19:13.992Z,88.58
2018-01-02T23:21:42.310Z,87.84
2018-01-02T23:24:11.404Z,87.50
2018-01-02T23:26:40.497Z,87.19
2018-01-02T23:29:09.636Z,87.47
2018-01-02T23:31:37.944Z,87.37
2018-01-02T23:34:06.263Z,87.33
2018-01-02T23:36:34.610Z,87.48
2018-01-02T23:39:02.942Z,87.56
2018-01-02T23:41:31.294Z,87.51
2018-01-02T23:43:59.628Z,87.38
2018-01-02T23:46:27.984Z,87.19
2018-01-02T23:48:56.298Z,87.41
2018-01-02T23:51:24.622Z,87.18
2018-01-02T23:53:52.954Z,87.42
2018-01-02T23:56:22.056Z,87.43
2018-01-02T23:58:50.367Z,87.34
